Map

Track Data

SID SEASON NUMBER BASIN SUBBASIN NAME ISO_TIME NATURE LAT LON WMO_WIND WMO_PRES WMO_AGENCY TRACK_TYPE DIST2LAND LANDFALL IFLAG USA_AGENCY USA_ATCF_ID USA_LAT USA_LON USA_RECORD USA_STATUS USA_WIND USA_PRES USA_SSHS USA_R34_NE USA_R34_SE USA_R34_SW USA_R34_NW USA_R50_NE USA_R50_SE USA_R50_SW USA_R50_NW USA_R64_NE USA_R64_SE USA_R64_SW USA_R64_NW USA_POCI USA_ROCI USA_RMW USA_EYE TOKYO_LAT TOKYO_LON TOKYO_GRADE TOKYO_WIND TOKYO_PRES TOKYO_R50_DIR TOKYO_R50_LONG TOKYO_R50_SHORT TOKYO_R30_DIR TOKYO_R30_LONG TOKYO_R30_SHORT TOKYO_LAND CMA_LAT CMA_LON CMA_CAT CMA_WIND CMA_PRES HKO_LAT HKO_LON HKO_CAT HKO_WIND HKO_PRES NEWDELHI_LAT NEWDELHI_LON NEWDELHI_GRADE NEWDELHI_WIND NEWDELHI_PRES NEWDELHI_CI NEWDELHI_DP NEWDELHI_POCI REUNION_LAT REUNION_LON REUNION_TYPE REUNION_WIND REUNION_PRES REUNION_TNUM REUNION_CI REUNION_RMW REUNION_R34_NE REUNION_R34_SE REUNION_R34_SW REUNION_R34_NW REUNION_R50_NE REUNION_R50_SE REUNION_R50_SW REUNION_R50_NW REUNION_R64_NE REUNION_R64_SE REUNION_R64_SW REUNION_R64_NW BOM_LAT BOM_LON BOM_TYPE BOM_WIND BOM_PRES BOM_TNUM BOM_CI BOM_RMW BOM_R34_NE BOM_R34_SE BOM_R34_SW BOM_R34_NW BOM_R50_NE BOM_R50_SE BOM_R50_SW BOM_R50_NW BOM_R64_NE BOM_R64_SE BOM_R64_SW BOM_R64_NW BOM_ROCI BOM_POCI BOM_EYE BOM_POS_METHOD BOM_PRES_METHOD NADI_LAT NADI_LON NADI_CAT NADI_WIND NADI_PRES WELLINGTON_LAT WELLINGTON_LON WELLINGTON_WIND WELLINGTON_PRES DS824_LAT DS824_LON DS824_STAGE DS824_WIND DS824_PRES TD9636_LAT TD9636_LON TD9636_STAGE TD9636_WIND TD9636_PRES TD9635_LAT TD9635_LON TD9635_WIND TD9635_PRES TD9635_ROCI NEUMANN_LAT NEUMANN_LON NEUMANN_CLASS NEUMANN_WIND NEUMANN_PRES MLC_LAT MLC_LON MLC_CLASS MLC_WIND MLC_PRES USA_GUST BOM_GUST BOM_GUST_PER REUNION_GUST REUNION_GUST_PER USA_SEAHGT USA_SEARAD_NE USA_SEARAD_SE USA_SEARAD_SW USA_SEARAD_NW STORM_SPEED STORM_DIR
2021306N10279 2021 90 NA CS TERRY 2021-11-02 00:00:00 NR 10.4000 -81.2000 PROVISIONAL 159 117 O_____________ nhc_working_bt EP182021 10.4000 -81.2000 DB 15 -3 12 257
2021306N10279 2021 90 NA CS TERRY 2021-11-02 03:00:00 NR 10.2652 -81.8076 PROVISIONAL 117 60 P_____________ EP182021 10.2652 -81.8076 DB 15 -3 12 256
2021306N10279 2021 90 NA CS TERRY 2021-11-02 06:00:00 NR 10.1000 -82.4000 PROVISIONAL 60 10 O_____________ nhc_working_bt EP182021 10.1000 -82.4000 DB 15 -3 12 251
2021306N10279 2021 90 NA CS TERRY 2021-11-02 09:00:00 NR 9.87990 -82.9649 PROVISIONAL 0 0 P_____________ EP182021 9.87990 -82.9649 DB 15 -3 12 245
2021306N10279 2021 90 NA NA TERRY 2021-11-02 12:00:00 NR 9.60000 -83.5000 PROVISIONAL 0 0 O_____________ nhc_working_bt EP182021 9.60000 -83.5000 DB 15 -3 12 238
2021306N10279 2021 90 EP MM TERRY 2021-11-02 15:00:00 NR 9.23493 -84.0151 PROVISIONAL 15 15 P_____________ EP182021 9.23493 -84.0151 DB 17 -3 12 235
2021306N10279 2021 90 EP MM TERRY 2021-11-02 18:00:00 DS 8.90000 -84.5000 PROVISIONAL 74 74 O_____________ nhc_working_bt EP182021 8.90000 -84.5000 LO 20 -3 11 241
2021306N10279 2021 90 EP MM TERRY 2021-11-02 21:00:00 DS 8.69749 -84.9799 PROVISIONAL 101 100 P_____________ EP182021 8.69749 -84.9799 LO 22 -3 9 251
2021306N10279 2021 90 EP MM TERRY 2021-11-03 00:00:00 DS 8.60000 -85.4000 PROVISIONAL 116 116 O_____________ nhc_working_bt EP182021 8.60000 -85.4000 LO 25 1008 -3 1011 120 45 7 260
2021306N10279 2021 90 EP MM TERRY 2021-11-03 03:00:00 DS 8.56992 -85.7224 PROVISIONAL 129 129 P_____________ EP182021 8.56992 -85.7224 LO 25 1008 -3 1011 120 45 6 270
2021306N10279 2021 90 EP MM TERRY 2021-11-03 06:00:00 DS 8.60000 -86.0000 PROVISIONAL 149 149 O_____________ nhc_working_bt EP182021 8.60000 -86.0000 LO 25 1008 -3 1011 120 45 6 278
2021306N10279 2021 90 EP MM TERRY 2021-11-03 09:00:00 DS 8.64991 -86.2775 PROVISIONAL 159 149 P_____________ EP182021 8.64991 -86.2775 LO 25 1008 -3 1011 120 47 6 280
2021306N10279 2021 90 EP MM TERRY 2021-11-03 12:00:00 DS 8.70000 -86.6000 PROVISIONAL 166 166 O_____________ nhc_working_bt EP182021 8.70000 -86.6000 LO 25 1008 -3 1011 120 50 8 274
2021306N10279 2021 90 EP MM TERRY 2021-11-03 15:00:00 DS 8.70754 -87.0350 PROVISIONAL 196 196 P_____________ EP182021 8.70754 -87.0350 LO 27 1007 -3 1011 120 50 9 270
2021306N10279 2021 90 EP MM TERRY 2021-11-03 18:00:00 DS 8.70000 -87.5000 PROVISIONAL 239 239 O_____________ nhc_working_bt EP182021 8.70000 -87.5000 LO 30 1007 -3 1011 120 50 40 9 268
2021306N10279 2021 90 EP MM TERRY 2021-11-03 21:00:00 DS 8.67746 -87.9151 PROVISIONAL 276 276 P_____________ EP182021 8.67746 -87.9151 LO 30 1007 -3 1010 120 50 8 270
2021306N10279 2021 90 EP MM TERRY 2021-11-04 00:00:00 DS 8.70000 -88.3000 PROVISIONAL 315 315 O_____________ nhc_working_bt EP182021 8.70000 -88.3000 LO 30 1007 -3 1010 120 50 40 8 282
2021306N10279 2021 90 EP MM TERRY 2021-11-04 03:00:00 DS 8.82745 -88.6575 PROVISIONAL 351 347 P_____________ EP182021 8.82745 -88.6575 LO 30 1007 -3 1010 120 50 8 293
2021306N10279 2021 90 EP MM TERRY 2021-11-04 06:00:00 DS 9.00000 -89.0000 PROVISIONAL 374 374 O_____________ nhc_working_bt EP182021 9.00000 -89.0000 LO 30 1007 -3 1010 120 50 40 8 295
2021306N10279 2021 90 EP MM TERRY 2021-11-04 09:00:00 DS 9.15001 -89.3650 PROVISIONAL 406 406 P_____________ EP182021 9.15001 -89.3650 LO 30 1007 -3 1010 120 45 8 293
2021306N10279 2021 90 EP MM TERRY 2021-11-04 12:00:00 TS 9.30000 -89.7000 PROVISIONAL 434 431 O_____________ nhc_working_bt EP182021 9.30000 -89.7000 TD 30 1007 -1 1010 120 40 40 7 299
2021306N10279 2021 90 EP MM TERRY 2021-11-04 15:00:00 TS 9.46578 -89.9467 PROVISIONAL 431 427 P_____________ EP182021 9.46493 -89.9575 TD 30 1007 -1 1010 120 40 6 301
2021306N10279 2021 90 EP MM TERRY 2021-11-04 18:00:00 TS 9.60000 -90.2000 PROVISIONAL 431 429 O_____________ nhc_working_bt EP182021 9.60000 -90.2000 TD 30 1007 -1 1010 120 40 40 6 290
2021306N10279 2021 90 EP MM TERRY 2021-11-04 21:00:00 TS 9.67252 -90.5213 PROVISIONAL 432 432 P_____________ EP182021 9.67249 -90.4925 TD 30 1007 -1 1010 120 40 7 279
2021306N10279 2021 90 EP MM TERRY 2021-11-05 00:00:00 TS 9.70000 -90.8556 PROVISIONAL 442 442 O_____________ nhc_working_bt EP182021 9.70000 -90.8000 TD 30 1007 -1 1011 120 40 40 6 272
2021306N10279 2021 90 EP MM TERRY 2021-11-05 03:00:00 TS 9.69656 -91.1566 PROVISIONAL 452 452 P_____________ EP182021 9.71497 -91.1000 TD 30 1007 -1 1011 120 45 6 266
2021306N10279 2021 90 EP MM TERRY 2021-11-05 06:00:00 TS 9.65771 -91.4647 PROVISIONAL 464 464 O_____________ nhc_working_bt EP182021 9.70000 -91.4000 TD 30 1007 -1 1011 120 50 40 6 262
2021306N10279 2021 90 EP MM TERRY 2021-11-05 09:00:00 TS 9.61074 -91.7858 PROVISIONAL 484 484 P_____________ EP182021 9.68740 -91.6774 TD 30 1007 -1 1011 120 50 7 259
2021306N10279 2021 90 EP MM TERRY 2021-11-05 12:00:00 TS 9.52711 -92.1298 PROVISIONAL 500 500 O_____________ nhc_working_bt EP182021 9.60000 -92.0000 TD 30 1007 -1 1011 120 50 40 8 251
2021306N10279 2021 90 EP MM TERRY 2021-11-05 15:00:00 TS 9.35567 -92.5359 PROVISIONAL 520 520 P_____________ EP182021 9.36499 -92.4201 TD 30 1007 -1 1011 120 50 9 247
2021306N10279 2021 90 EP MM TERRY 2021-11-05 18:00:00 TS 9.16737 -92.9906 PROVISIONAL 558 558 O_____________ nhc_working_bt EP182021 9.10000 -92.9000 TD 30 1007 -1 1011 120 50 40 10 251
2021306N10279 2021 90 EP MM TERRY 2021-11-05 21:00:00 TS 9.03897 -93.4735 PROVISIONAL 598 598 P_____________ EP182021 8.91996 -93.3925 TD 27 1007 -1 1011 120 50 10 256
2021306N10279 2021 90 EP MM TERRY 2021-11-06 00:00:00 TS 8.93333 -93.9667 PROVISIONAL 632 632 O_____________ nhc_working_bt EP182021 8.80000 -93.9000 TD 25 1008 -1 1011 120 50 10 257
2021306N10279 2021 90 EP MM TERRY 2021-11-06 03:00:00 TS 8.82697 -94.4256 PROVISIONAL 663 663 P_____________ EP182021 8.74240 -94.3924 TD 25 1008 -1 1011 120 50 9 257
2021306N10279 2021 90 EP MM TERRY 2021-11-06 06:00:00 TS 8.72053 -94.8967 PROVISIONAL 702 702 O_____________ nhc_working_bt EP182021 8.70000 -94.9000 TD 25 1008 -1 1011 120 50 35 10 258
2021306N10279 2021 90 EP MM TERRY 2021-11-06 09:00:00 TS 8.61011 -95.4262 PROVISIONAL 739 739 P_____________ EP182021 8.60745 -95.4425 TD 27 1007 -1 1011 135 50 11 259
2021306N10279 2021 90 EP MM TERRY 2021-11-06 12:00:00 TS 8.50649 -95.9827 PROVISIONAL 785 785 O_____________ nhc_working_bt EP182021 8.50000 -96.0000 TD 30 1007 -1 1011 150 50 40 11 260
2021306N10279 2021 90 EP MM TERRY 2021-11-06 15:00:00 TS 8.41738 -96.5212 PROVISIONAL 806 806 P_____________ EP182021 8.39236 -96.5350 TD 30 1007 -1 1011 150 55 11 262
2021306N10279 2021 90 EP MM TERRY 2021-11-06 18:00:00 TS 8.35000 -97.0500 PROVISIONAL 807 808 O_____________ nhc_working_bt EP182021 8.30000 -97.1000 TD 30 1007 -1 1011 150 60 40 11 263
2021306N10279 2021 90 EP MM TERRY 2021-11-06 21:00:00 TS 8.29228 -97.5838 PROVISIONAL 824 824 P_____________ EP182021 8.23496 -97.7350 TD 30 1007 -1 1011 165 60 11 265
2021306N10279 2021 90 EP MM TERRY 2021-11-07 00:00:00 TS 8.25000 -98.2000 PROVISIONAL 835 846 O_____________ nhc_working_bt EP182021 8.20000 -98.4000 TD 30 1007 -1 1011 180 60 40 14 267
2021306N10279 2021 90 EP MM TERRY 2021-11-07 03:00:00 TS 8.21776 -99.0038 PROVISIONAL 868 868 P_____________ EP182021 8.19243 -99.0575 TD 30 1007 -1 1011 180 60 16 268
2021306N10279 2021 90 EP MM TERRY 2021-11-07 06:00:00 TS 8.20000 -99.8000 PROVISIONAL 898 898 O_____________ nhc_working_bt EP182021 8.20000 -99.7000 TD 30 1007 -1 1011 180 60 40 14 268
2021306N10279 2021 90 EP MM TERRY 2021-11-07 09:00:00 TS 8.18095 -100.376 PROVISIONAL 918 918 P_____________ EP182021 8.17734 -100.300 TD 30 1007 -1 1010 180 60 11 270
2021306N10279 2021 90 EP MM TERRY 2021-11-07 12:00:00 TS 8.20000 -100.900 PROVISIONAL 936 936 O_____________ nhc_working_bt EP182021 8.20000 -100.900 TD 30 1007 -1 1010 180 60 40 12 90 11 274
2021306N10279 2021 90 EP MM TERRY 2021-11-07 15:00:00 TS 8.26249 -101.521 PROVISIONAL 949 949 P_____________ EP182021 8.31247 -101.550 TD 32 1006 -1 1011 180 55 12 90 13 279
2021306N10279 2021 90 EP MM TERRY 2021-11-07 18:00:00 TS 8.40000 -102.150 PROVISIONAL 967 959 O_____________ nhc_working_bt EP182021 8.50000 -102.200 TS 35 1006 0 50 50 1012 180 50 40 12 90 12 287
2021306N10279 2021 90 EP MM TERRY 2021-11-07 21:00:00 TS 8.62360 -102.725 PROVISIONAL 963 952 P_____________ EP182021 8.73487 -102.808 TS 35 1006 0 50 50 1011 180 65 12 294
2021306N10279 2021 90 EP MM TERRY 2021-11-08 00:00:00 TS 8.90000 -103.300 PROVISIONAL 956 950 O_____________ nhc_working_bt EP182021 9.00000 -103.400 TS 35 1006 0 50 50 1011 180 80 50 13 295
2021306N10279 2021 90 EP MM TERRY 2021-11-08 03:00:00 TS 9.17860 -103.903 PROVISIONAL 955 949 P_____________ EP182021 9.25732 -103.985 TS 35 1006 0 65 1011 180 77 14 294
2021306N10279 2021 90 EP MM TERRY 2021-11-08 06:00:00 TS 9.45000 -104.550 PROVISIONAL 947 951 O_____________ nhc_working_bt EP182021 9.50000 -104.600 TS 35 1006 0 80 1011 180 75 45 12 90 14 291
2021306N10279 2021 90 EP MM TERRY 2021-11-08 09:00:00 TS 9.68994 -105.260 PROVISIONAL 964 964 P_____________ EP182021 9.71494 -105.285 TS 32 1006 -1 75 1010 180 67 15 287
2021306N10279 2021 90 EP MM TERRY 2021-11-08 12:00:00 TS 9.90000 -106.000 PROVISIONAL 977 973 O_____________ nhc_working_bt EP182021 9.90000 -106.000 TD 30 1007 -1 70 1010 180 60 45 15 285
2021306N10279 2021 90 EP MM TERRY 2021-11-08 15:00:00 TS 10.0824 -106.740 PROVISIONAL 980 980 P_____________ EP182021 10.0424 -106.708 TD 30 1007 -1 1010 180 60 15 284
2021306N10279 2021 90 EP MM TERRY 2021-11-08 18:00:00 TS 10.2500 -107.450 PROVISIONAL 993 993 O_____________ nhc_working_bt EP182021 10.2000 -107.400 TD 30 1007 -1 1011 180 60 40 14 284
2021306N10279 2021 90 EP MM TERRY 2021-11-08 21:00:00 TS 10.4136 -108.098 PROVISIONAL 1013 1009 P_____________ EP182021 10.4424 -108.065 TD 30 1007 -1 1011 180 60 13 286
2021306N10279 2021 90 EP MM TERRY 2021-11-09 00:00:00 TS 10.6000 -108.700 PROVISIONAL 1027 1024 O_____________ nhc_working_bt EP182021 10.7000 -108.700 TD 30 1007 -1 1011 180 60 40 12 291
2021306N10279 2021 90 EP MM TERRY 2021-11-09 03:00:00 TS 10.8686 -109.275 PROVISIONAL 1037 1037 P_____________ EP182021 10.9148 -109.308 TD 30 1007 -1 1011 180 55 12 294
2021306N10279 2021 90 EP MM TERRY 2021-11-09 06:00:00 TS 11.1000 -109.850 PROVISIONAL 1058 1058 O_____________ nhc_working_bt EP182021 11.1000 -109.900 TD 30 1007 -1 1011 180 50 40 12 284
2021306N10279 2021 90 EP MM TERRY 2021-11-09 09:00:00 TS 11.1612 -110.468 PROVISIONAL 1084 1084 P_____________ EP182021 11.2649 -110.500 TD 27 1007 -1 1011 180 50 12 275
2021306N10279 2021 90 EP MM TERRY 2021-11-09 12:00:00 TS 11.2000 -111.100 PROVISIONAL 1121 1121 O_____________ nhc_working_bt EP182021 11.4000 -111.100 TD 25 1008 -1 1011 180 50 40 13 279
2021306N10279 2021 90 EP MM TERRY 2021-11-09 15:00:00 TS 11.3636 -111.729 PROVISIONAL 1144 1144 P_____________ EP182021 11.5073 -111.693 TD 25 1008 -1 1011 180 65 13 286
2021306N10279 2021 90 EP MM TERRY 2021-11-09 18:00:00 TS 11.5500 -112.350 PROVISIONAL 1177 1177 O_____________ nhc_working_bt EP182021 11.6000 -112.300 TD 25 1008 -1 1011 180 80 35 12 286
2021306N10279 2021 90 EP MM TERRY 2021-11-09 21:00:00 TS 11.7010 -112.943 PROVISIONAL 1207 1207 P_____________ EP182021 11.7149 -112.942 TD 25 1008 -1 1011 180 80 12 282
2021306N10279 2021 90 EP MM TERRY 2021-11-10 00:00:00 TS 11.8000 -113.550 PROVISIONAL 1245 1252 O_____________ nhc_working_bt EP182021 11.8000 -113.600 TD 25 1008 -1 1011 180 80 35 13 276
2021306N10279 2021 90 EP MM TERRY 2021-11-10 03:00:00 TS 11.8262 -114.218 PROVISIONAL 1299 1299 P_____________ EP182021 11.8224 -114.250 TD 25 1008 -1 1011 180 70 13 270
2021306N10279 2021 90 EP MM TERRY 2021-11-10 06:00:00 TS 11.8000 -114.900 PROVISIONAL 1346 1346 O_____________ nhc_working_bt EP182021 11.8000 -114.900 TD 25 1008 -1 1011 180 60 13 267
2021306N10279 2021 90 EP MM TERRY 2021-11-10 09:00:00 TS 11.7498 -115.546 PROVISIONAL 1382 1382 P_____________ EP182021 11.7498 -115.543 TD 25 1008 -1 1011 180 60 13 266
2021306N10279 2021 90 EP MM TERRY 2021-11-10 12:00:00 TS 11.7000 -116.200 PROVISIONAL 1414 1414 O_____________ nhc_working_bt EP182021 11.7000 -116.200 TD 25 1008 -1 1011 180 60 35 13 267
2021306N10279 2021 90 EP MM TERRY 2021-11-10 15:00:00 TS 11.6879 -116.889 PROVISIONAL 1450 1450 P_____________ EP182021 11.6879 -116.890 TD 25 1008 -1 1011 180 60 14 270
2021306N10279 2021 90 EP MM TERRY 2021-11-10 18:00:00 NR 11.7000 -117.600 PROVISIONAL 1489 O_____________ nhc_working_bt EP182021 11.7000 -117.600 DB 25 1008 -3 1011 180 60 35 14 271

About IBTrACS Database

This database is a web-friendly format of International Best Track Archive for Climate Stewardship (IBTrACS), a global best track data archive curated by NOAA dating back to 1842.

Updated: 2022-08-05